sensor_id;sensor_type;location;lat;lon;timestamp;P1;durP1;ratioP1;P2;durP2;ratioP2
2488;SDS011;1255;48.716;9.124;2024-02-14T00:00:14;2.03;;;1.55;;
2488;SDS011;1255;48.716;9.124;2024-02-14T00:02:41;2.65;;;2.42;;
2488;SDS011;1255;48.716;9.124;2024-02-14T00:05:09;3.67;;;2.63;;
2488;SDS011;1255;48.716;9.124;2024-02-14T00:07:36;2.13;;;1.67;;
2488;SDS011;1255;48.716;9.124;2024-02-14T00:10:04;2.30;;;1.70;;
2488;SDS011;1255;48.716;9.124;2024-02-14T00:12:32;2.00;;;1.73;;
2488;SDS011;1255;48.716;9.124;2024-02-14T00:14:58;2.55;;;2.33;;
2488;SDS011;1255;48.716;9.124;2024-02-14T00:17:26;4.35;;;2.20;;
2488;SDS011;1255;48.716;9.124;2024-02-14T00:19:53;3.17;;;2.65;;
2488;SDS011;1255;48.716;9.124;2024-02-14T00:22:20;5.43;;;2.28;;
2488;SDS011;1255;48.716;9.124;2024-02-14T00:24:47;3.22;;;2.15;;
2488;SDS011;1255;48.716;9.124;2024-02-14T00:27:14;2.92;;;1.95;;
2488;SDS011;1255;48.716;9.124;2024-02-14T00:29:42;2.50;;;2.30;;
2488;SDS011;1255;48.716;9.124;2024-02-14T00:32:10;3.60;;;2.72;;
2488;SDS011;1255;48.716;9.124;2024-02-14T00:34:38;3.20;;;2.40;;
2488;SDS011;1255;48.716;9.124;2024-02-14T00:37:05;3.00;;;2.60;;
2488;SDS011;1255;48.716;9.124;2024-02-14T00:39:32;2.97;;;2.08;;
2488;SDS011;1255;48.716;9.124;2024-02-14T00:41:59;3.15;;;2.45;;
2488;SDS011;1255;48.716;9.124;2024-02-14T00:44:25;2.85;;;2.38;;
2488;SDS011;1255;48.716;9.124;2024-02-14T00:46:55;2.03;;;1.80;;
2488;SDS011;1255;48.716;9.124;2024-02-14T00:49:22;3.90;;;2.13;;
2488;SDS011;1255;48.716;9.124;2024-02-14T00:51:50;3.05;;;2.25;;
2488;SDS011;1255;48.716;9.124;2024-02-14T00:54:17;4.88;;;2.20;;
2488;SDS011;1255;48.716;9.124;2024-02-14T00:56:44;3.00;;;1.90;;
2488;SDS011;1255;48.716;9.124;2024-02-14T00:59:11;4.25;;;2.50;;
2488;SDS011;1255;48.716;9.124;2024-02-14T01:01:38;4.43;;;2.35;;
2488;SDS011;1255;48.716;9.124;2024-02-14T01:04:04;2.67;;;2.00;;
2488;SDS011;1255;48.716;9.124;2024-02-14T01:06:32;3.42;;;2.00;;
2488;SDS011;1255;48.716;9.124;2024-02-14T01:09:00;4.10;;;2.30;;
2488;SDS011;1255;48.716;9.124;2024-02-14T01:11:28;2.33;;;2.03;;
2488;SDS011;1255;48.716;9.124;2024-02-14T01:13:55;2.22;;;1.95;;
2488;SDS011;1255;48.716;9.124;2024-02-14T01:16:21;2.85;;;1.98;;
2488;SDS011;1255;48.716;9.124;2024-02-14T01:18:50;5.93;;;2.70;;
2488;SDS011;1255;48.716;9.124;2024-02-14T01:21:17;2.13;;;1.90;;
2488;SDS011;1255;48.716;9.124;2024-02-14T01:23:44;2.83;;;1.75;;
2488;SDS011;1255;48.716;9.124;2024-02-14T01:26:12;2.40;;;1.95;;
2488;SDS011;1255;48.716;9.124;2024-02-14T01:28:39;2.42;;;2.15;;
2488;SDS011;1255;48.716;9.124;2024-02-14T01:31:08;2.72;;;1.77;;
2488;SDS011;1255;48.716;9.124;2024-02-14T01:33:37;2.70;;;2.10;;
2488;SDS011;1255;48.716;9.124;2024-02-14T01:36:05;3.42;;;1.73;;
2488;SDS011;1255;48.716;9.124;2024-02-14T01:38:32;2.10;;;1.90;;
2488;SDS011;1255;48.716;9.124;2024-02-14T01:41:00;2.70;;;2.30;;
2488;SDS011;1255;48.716;9.124;2024-02-14T01:43:29;2.20;;;1.70;;
2488;SDS011;1255;48.716;9.124;2024-02-14T01:45:56;2.75;;;2.38;;
2488;SDS011;1255;48.716;9.124;2024-02-14T01:48:30;2.88;;;1.70;;
2488;SDS011;1255;48.716;9.124;2024-02-14T01:50:58;2.60;;;1.95;;
2488;SDS011;1255;48.716;9.124;2024-02-14T01:53:26;3.33;;;1.83;;
2488;SDS011;1255;48.716;9.124;2024-02-14T01:55:56;2.08;;;1.80;;
2488;SDS011;1255;48.716;9.124;2024-02-14T01:58:23;4.07;;;2.20;;
2488;SDS011;1255;48.716;9.124;2024-02-14T02:00:51;2.63;;;2.25;;
2488;SDS011;1255;48.716;9.124;2024-02-14T02:03:22;5.57;;;2.10;;
2488;SDS011;1255;48.716;9.124;2024-02-14T02:05:49;2.55;;;1.92;;
2488;SDS011;1255;48.716;9.124;2024-02-14T02:08:16;3.13;;;1.88;;
2488;SDS011;1255;48.716;9.124;2024-02-14T02:10:42;2.30;;;2.05;;
2488;SDS011;1255;48.716;9.124;2024-02-14T02:13:09;3.70;;;1.40;;
2488;SDS011;1255;48.716;9.124;2024-02-14T02:15:36;2.90;;;2.03;;
2488;SDS011;1255;48.716;9.124;2024-02-14T02:18:04;2.58;;;2.20;;
2488;SDS011;1255;48.716;9.124;2024-02-14T02:20:32;1.92;;;1.83;;
2488;SDS011;1255;48.716;9.124;2024-02-14T02:23:00;2.47;;;1.65;;
2488;SDS011;1255;48.716;9.124;2024-02-14T02:25:26;3.50;;;2.05;;
2488;SDS011;1255;48.716;9.124;2024-02-14T02:27:54;1.90;;;1.80;;
2488;SDS011;1255;48.716;9.124;2024-02-14T02:30:21;4.20;;;2.10;;
2488;SDS011;1255;48.716;9.124;2024-02-14T02:32:49;2.92;;;2.50;;
2488;SDS011;1255;48.716;9.124;2024-02-14T02:35:16;3.10;;;2.42;;
2488;SDS011;1255;48.716;9.124;2024-02-14T02:37:45;2.17;;;1.98;;
2488;SDS011;1255;48.716;9.124;2024-02-14T02:40:14;2.47;;;2.28;;
2488;SDS011;1255;48.716;9.124;2024-02-14T02:42:41;1.50;;;1.40;;
2488;SDS011;1255;48.716;9.124;2024-02-14T02:45:10;4.43;;;3.10;;
2488;SDS011;1255;48.716;9.124;2024-02-14T02:47:37;2.85;;;2.22;;
2488;SDS011;1255;48.716;9.124;2024-02-14T02:50:05;2.60;;;2.40;;
2488;SDS011;1255;48.716;9.124;2024-02-14T02:52:32;1.60;;;1.50;;
2488;SDS011;1255;48.716;9.124;2024-02-14T02:54:59;2.63;;;1.90;;
2488;SDS011;1255;48.716;9.124;2024-02-14T02:57:28;2.20;;;1.70;;
2488;SDS011;1255;48.716;9.124;2024-02-14T02:59:57;2.00;;;1.50;;
2488;SDS011;1255;48.716;9.124;2024-02-14T03:02:23;2.17;;;1.98;;
2488;SDS011;1255;48.716;9.124;2024-02-14T03:04:51;2.17;;;1.98;;
2488;SDS011;1255;48.716;9.124;2024-02-14T03:07:18;2.65;;;1.95;;
2488;SDS011;1255;48.716;9.124;2024-02-14T03:09:45;3.08;;;2.38;;
2488;SDS011;1255;48.716;9.124;2024-02-14T03:12:12;3.30;;;2.40;;
2488;SDS011;1255;48.716;9.124;2024-02-14T03:14:42;2.78;;;2.08;;
2488;SDS011;1255;48.716;9.124;2024-02-14T03:17:09;3.03;;;1.98;;
2488;SDS011;1255;48.716;9.124;2024-02-14T03:19:36;5.93;;;2.85;;
2488;SDS011;1255;48.716;9.124;2024-02-14T03:22:04;2.47;;;2.13;;
2488;SDS011;1255;48.716;9.124;2024-02-14T03:24:34;4.05;;;2.20;;
2488;SDS011;1255;48.716;9.124;2024-02-14T03:27:02;2.80;;;1.80;;
2488;SDS011;1255;48.716;9.124;2024-02-14T03:29:30;5.65;;;2.28;;
2488;SDS011;1255;48.716;9.124;2024-02-14T03:31:58;3.10;;;2.80;;
2488;SDS011;1255;48.716;9.124;2024-02-14T03:34:29;3.95;;;3.58;;
2488;SDS011;1255;48.716;9.124;2024-02-14T03:36:58;4.40;;;2.42;;
2488;SDS011;1255;48.716;9.124;2024-02-14T03:39:26;2.55;;;1.80;;
2488;SDS011;1255;48.716;9.124;2024-02-14T03:41:52;3.57;;;2.40;;
2488;SDS011;1255;48.716;9.124;2024-02-14T03:44:19;4.53;;;2.50;;
2488;SDS011;1255;48.716;9.124;2024-02-14T03:46:46;3.55;;;2.30;;
2488;SDS011;1255;48.716;9.124;2024-02-14T03:49:14;1.70;;;1.60;;
2488;SDS011;1255;48.716;9.124;2024-02-14T03:51:41;2.33;;;2.13;;
2488;SDS011;1255;48.716;9.124;2024-02-14T03:54:08;2.15;;;1.95;;
2488;SDS011;1255;48.716;9.124;2024-02-14T03:56:36;2.40;;;2.17;;
2488;SDS011;1255;48.716;9.124;2024-02-14T03:59:03;4.05;;;2.38;;
2488;SDS011;1255;48.716;9.124;2024-02-14T04:01:32;2.38;;;1.80;;
2488;SDS011;1255;48.716;9.124;2024-02-14T04:03:59;2.85;;;1.70;;
2488;SDS011;1255;48.716;9.124;2024-02-14T04:06:27;1.75;;;1.42;;
2488;SDS011;1255;48.716;9.124;2024-02-14T04:08:56;5.13;;;1.90;;
2488;SDS011;1255;48.716;9.124;2024-02-14T04:11:23;2.13;;;1.45;;
2488;SDS011;1255;48.716;9.124;2024-02-14T04:13:50;1.55;;;1.45;;
2488;SDS011;1255;48.716;9.124;2024-02-14T04:16:18;2.15;;;1.95;;
2488;SDS011;1255;48.716;9.124;2024-02-14T04:18:46;3.80;;;1.70;;
2488;SDS011;1255;48.716;9.124;2024-02-14T04:21:13;4.32;;;1.95;;
2488;SDS011;1255;48.716;9.124;2024-02-14T04:23:41;4.28;;;2.03;;
2488;SDS011;1255;48.716;9.124;2024-02-14T04:26:07;2.20;;;2.00;;
2488;SDS011;1255;48.716;9.124;2024-02-14T04:28:34;1.90;;;1.70;;
2488;SDS011;1255;48.716;9.124;2024-02-14T04:31:01;6.05;;;1.58;;
2488;SDS011;1255;48.716;9.124;2024-02-14T04:33:27;2.10;;;1.80;;
2488;SDS011;1255;48.716;9.124;2024-02-14T04:35:55;2.45;;;2.17;;
2488;SDS011;1255;48.716;9.124;2024-02-14T04:38:21;2.15;;;1.95;;
2488;SDS011;1255;48.716;9.124;2024-02-14T04:40:50;4.38;;;1.90;;
2488;SDS011;1255;48.716;9.124;2024-02-14T04:43:17;2.05;;;1.80;;
2488;SDS011;1255;48.716;9.124;2024-02-14T04:45:44;2.75;;;2.05;;
2488;SDS011;1255;48.716;9.124;2024-02-14T04:48:11;2.22;;;1.92;;
2488;SDS011;1255;48.716;9.124;2024-02-14T04:50:38;1.90;;;1.70;;
2488;SDS011;1255;48.716;9.124;2024-02-14T04:53:05;3.17;;;1.95;;
2488;SDS011;1255;48.716;9.124;2024-02-14T04:55:31;2.03;;;1.77;;
2488;SDS011;1255;48.716;9.124;2024-02-14T04:58:00;2.70;;;2.17;;
2488;SDS011;1255;48.716;9.124;2024-02-14T05:00:27;3.53;;;2.97;;
2488;SDS011;1255;48.716;9.124;2024-02-14T05:02:53;2.92;;;1.95;;
2488;SDS011;1255;48.716;9.124;2024-02-14T05:05:20;2.92;;;2.10;;
2488;SDS011;1255;48.716;9.124;2024-02-14T05:07:47;2.73;;;2.27;;
2488;SDS011;1255;48.716;9.124;2024-02-14T05:10:14;1.90;;;1.45;;
2488;SDS011;1255;48.716;9.124;2024-02-14T05:12:41;4.55;;;2.03;;
2488;SDS011;1255;48.716;9.124;2024-02-14T05:15:09;2.08;;;1.75;;
2488;SDS011;1255;48.716;9.124;2024-02-14T05:17:37;2.35;;;1.77;;
2488;SDS011;1255;48.716;9.124;2024-02-14T05:20:04;1.60;;;1.35;;
2488;SDS011;1255;48.716;9.124;2024-02-14T05:22:34;2.58;;;1.30;;
2488;SDS011;1255;48.716;9.124;2024-02-14T05:25:02;1.48;;;1.38;;
2488;SDS011;1255;48.716;9.124;2024-02-14T05:27:29;1.50;;;1.40;;
2488;SDS011;1255;48.716;9.124;2024-02-14T05:29:56;3.38;;;1.30;;
2488;SDS011;1255;48.716;9.124;2024-02-14T05:32:24;3.80;;;1.70;;
2488;SDS011;1255;48.716;9.124;2024-02-14T05:34:50;3.58;;;1.60;;
2488;SDS011;1255;48.716;9.124;2024-02-14T05:37:17;1.92;;;1.73;;
2488;SDS011;1255;48.716;9.124;2024-02-14T05:39:44;2.90;;;1.50;;
2488;SDS011;1255;48.716;9.124;2024-02-14T05:42:11;2.25;;;1.40;;
2488;SDS011;1255;48.716;9.124;2024-02-14T05:44:38;2.47;;;1.25;;
2488;SDS011;1255;48.716;9.124;2024-02-14T05:47:05;1.30;;;1.17;;
2488;SDS011;1255;48.716;9.124;2024-02-14T05:49:33;5.78;;;1.75;;
2488;SDS011;1255;48.716;9.124;2024-02-14T05:52:00;2.85;;;1.60;;
2488;SDS011;1255;48.716;9.124;2024-02-14T05:54:26;2.42;;;1.50;;
2488;SDS011;1255;48.716;9.124;2024-02-14T05:56:53;4.13;;;1.90;;
2488;SDS011;1255;48.716;9.124;2024-02-14T05:59:22;1.77;;;1.30;;
2488;SDS011;1255;48.716;9.124;2024-02-14T06:01:49;1.55;;;1.25;;
2488;SDS011;1255;48.716;9.124;2024-02-14T06:04:16;3.53;;;1.77;;
2488;SDS011;1255;48.716;9.124;2024-02-14T06:06:44;3.00;;;1.40;;
2488;SDS011;1255;48.716;9.124;2024-02-14T06:09:11;3.22;;;1.70;;
2488;SDS011;1255;48.716;9.124;2024-02-14T06:11:37;3.45;;;1.35;;
2488;SDS011;1255;48.716;9.124;2024-02-14T06:14:04;1.60;;;1.30;;
2488;SDS011;1255;48.716;9.124;2024-02-14T06:16:31;1.95;;;1.75;;
2488;SDS011;1255;48.716;9.124;2024-02-14T06:18:58;4.13;;;1.20;;
2488;SDS011;1255;48.716;9.124;2024-02-14T06:21:25;1.58;;;1.48;;
2488;SDS011;1255;48.716;9.124;2024-02-14T06:23:53;1.50;;;1.40;;
2488;SDS011;1255;48.716;9.124;2024-02-14T06:26:20;2.25;;;1.40;;
2488;SDS011;1255;48.716;9.124;2024-02-14T06:28:47;1.13;;;1.00;;
2488;SDS011;1255;48.716;9.124;2024-02-14T06:31:19;1.85;;;1.63;;
2488;SDS011;1255;48.716;9.124;2024-02-14T06:33:45;2.03;;;1.63;;
2488;SDS011;1255;48.716;9.124;2024-02-14T06:36:12;3.72;;;3.42;;
2488;SDS011;1255;48.716;9.124;2024-02-14T06:41:08;2.17;;;1.35;;
2488;SDS011;1255;48.716;9.124;2024-02-14T06:43:35;3.47;;;1.42;;
2488;SDS011;1255;48.716;9.124;2024-02-14T06:46:04;1.75;;;1.40;;
2488;SDS011;1255;48.716;9.124;2024-02-14T06:48:31;1.42;;;1.08;;
2488;SDS011;1255;48.716;9.124;2024-02-14T06:50:57;1.23;;;1.13;;
2488;SDS011;1255;48.716;9.124;2024-02-14T06:53:24;2.63;;;1.85;;
2488;SDS011;1255;48.716;9.124;2024-02-14T06:55:51;2.30;;;1.83;;
2488;SDS011;1255;48.716;9.124;2024-02-14T06:58:19;4.22;;;1.30;;
2488;SDS011;1255;48.716;9.124;2024-02-14T07:00:46;1.98;;;1.63;;
2488;SDS011;1255;48.716;9.124;2024-02-14T07:03:12;1.50;;;1.25;;
2488;SDS011;1255;48.716;9.124;2024-02-14T07:05:39;1.45;;;1.30;;
2488;SDS011;1255;48.716;9.124;2024-02-14T07:08:06;1.65;;;1.40;;
2488;SDS011;1255;48.716;9.124;2024-02-14T07:10:33;2.70;;;1.20;;
2488;SDS011;1255;48.716;9.124;2024-02-14T07:13:00;4.63;;;1.40;;
2488;SDS011;1255;48.716;9.124;2024-02-14T07:15:28;2.03;;;1.25;;
2488;SDS011;1255;48.716;9.124;2024-02-14T07:17:55;1.60;;;1.15;;
2488;SDS011;1255;48.716;9.124;2024-02-14T07:20:23;1.13;;;1.00;;
2488;SDS011;1255;48.716;9.124;2024-02-14T07:22:51;0.95;;;0.88;;
2488;SDS011;1255;48.716;9.124;2024-02-14T07:25:18;3.03;;;1.52;;
2488;SDS011;1255;48.716;9.124;2024-02-14T07:27:45;1.65;;;1.33;;
2488;SDS011;1255;48.716;9.124;2024-02-14T07:30:14;2.90;;;1.27;;
2488;SDS011;1255;48.716;9.124;2024-02-14T07:32:42;1.38;;;1.23;;
2488;SDS011;1255;48.716;9.124;2024-02-14T07:35:09;1.60;;;1.50;;
2488;SDS011;1255;48.716;9.124;2024-02-14T07:37:36;1.83;;;1.30;;
2488;SDS011;1255;48.716;9.124;2024-02-14T07:40:03;2.05;;;1.15;;
2488;SDS011;1255;48.716;9.124;2024-02-14T07:42:31;1.20;;;1.00;;
2488;SDS011;1255;48.716;9.124;2024-02-14T07:44:58;1.00;;;0.90;;
2488;SDS011;1255;48.716;9.124;2024-02-14T07:47:24;1.85;;;1.20;;
2488;SDS011;1255;48.716;9.124;2024-02-14T07:49:52;1.60;;;1.15;;
2488;SDS011;1255;48.716;9.124;2024-02-14T07:52:19;9.02;;;1.75;;
2488;SDS011;1255;48.716;9.124;2024-02-14T07:54:46;2.75;;;1.15;;
2488;SDS011;1255;48.716;9.124;2024-02-14T07:57:13;1.35;;;1.10;;
2488;SDS011;1255;48.716;9.124;2024-02-14T07:59:39;1.23;;;1.08;;
2488;SDS011;1255;48.716;9.124;2024-02-14T08:02:06;1.30;;;1.20;;
2488;SDS011;1255;48.716;9.124;2024-02-14T08:04:33;1.45;;;1.23;;
2488;SDS011;1255;48.716;9.124;2024-02-14T08:07:01;3.35;;;1.70;;
2488;SDS011;1255;48.716;9.124;2024-02-14T08:09:27;2.35;;;1.13;;
2488;SDS011;1255;48.716;9.124;2024-02-14T08:11:55;3.35;;;1.55;;
2488;SDS011;1255;48.716;9.124;2024-02-14T08:14:22;1.60;;;1.30;;
2488;SDS011;1255;48.716;9.124;2024-02-14T08:16:48;3.25;;;1.95;;
2488;SDS011;1255;48.716;9.124;2024-02-14T08:19:16;1.45;;;1.25;;
2488;SDS011;1255;48.716;9.124;2024-02-14T08:21:43;1.35;;;1.25;;
2488;SDS011;1255;48.716;9.124;2024-02-14T08:24:11;2.78;;;1.30;;
2488;SDS011;1255;48.716;9.124;2024-02-14T08:26:38;1.02;;;0.93;;
2488;SDS011;1255;48.716;9.124;2024-02-14T08:29:05;2.58;;;1.13;;
2488;SDS011;1255;48.716;9.124;2024-02-14T08:31:32;1.15;;;1.05;;
2488;SDS011;1255;48.716;9.124;2024-02-14T08:33:59;1.65;;;1.08;;
2488;SDS011;1255;48.716;9.124;2024-02-14T08:36:26;1.15;;;1.05;;
2488;SDS011;1255;48.716;9.124;2024-02-14T08:38:53;1.20;;;1.10;;
2488;SDS011;1255;48.716;9.124;2024-02-14T08:41:21;5.85;;;1.20;;
2488;SDS011;1255;48.716;9.124;2024-02-14T08:43:48;1.25;;;1.05;;
2488;SDS011;1255;48.716;9.124;2024-02-14T08:46:16;2.00;;;1.15;;
2488;SDS011;1255;48.716;9.124;2024-02-14T08:48:43;3.88;;;1.25;;
2488;SDS011;1255;48.716;9.124;2024-02-14T08:51:11;1.20;;;1.10;;
2488;SDS011;1255;48.716;9.124;2024-02-14T08:53:38;2.47;;;1.38;;
2488;SDS011;1255;48.716;9.124;2024-02-14T08:56:06;2.15;;;1.20;;
2488;SDS011;1255;48.716;9.124;2024-02-14T08:58:35;1.65;;;1.55;;
2488;SDS011;1255;48.716;9.124;2024-02-14T09:01:02;3.83;;;1.40;;
2488;SDS011;1255;48.716;9.124;2024-02-14T09:03:28;3.38;;;1.45;;
2488;SDS011;1255;48.716;9.124;2024-02-14T09:05:56;2.33;;;1.33;;
2488;SDS011;1255;48.716;9.124;2024-02-14T09:08:23;1.30;;;1.10;;
2488;SDS011;1255;48.716;9.124;2024-02-14T09:10:50;2.10;;;1.50;;
2488;SDS011;1255;48.716;9.124;2024-02-14T09:13:16;2.00;;;1.35;;
2488;SDS011;1255;48.716;9.124;2024-02-14T09:15:44;1.38;;;1.15;;
2488;SDS011;1255;48.716;9.124;2024-02-14T09:18:13;2.63;;;1.10;;
2488;SDS011;1255;48.716;9.124;2024-02-14T09:20:43;2.40;;;1.50;;
2488;SDS011;1255;48.716;9.124;2024-02-14T09:23:11;5.57;;;1.35;;
2488;SDS011;1255;48.716;9.124;2024-02-14T09:25:38;1.30;;;1.15;;
2488;SDS011;1255;48.716;9.124;2024-02-14T09:28:05;1.55;;;1.25;;
2488;SDS011;1255;48.716;9.124;2024-02-14T09:30:32;2.10;;;1.20;;
2488;SDS011;1255;48.716;9.124;2024-02-14T09:33:00;1.40;;;1.30;;
2488;SDS011;1255;48.716;9.124;2024-02-14T09:35:27;1.90;;;1.52;;
2488;SDS011;1255;48.716;9.124;2024-02-14T09:37:53;1.23;;;1.13;;
2488;SDS011;1255;48.716;9.124;2024-02-14T09:40:20;2.88;;;1.10;;
2488;SDS011;1255;48.716;9.124;2024-02-14T09:42:48;1.30;;;0.98;;
2488;SDS011;1255;48.716;9.124;2024-02-14T09:45:19;2.05;;;1.48;;
2488;SDS011;1255;48.716;9.124;2024-02-14T09:47:46;1.73;;;1.20;;
2488;SDS011;1255;48.716;9.124;2024-02-14T09:50:14;5.00;;;1.70;;
2488;SDS011;1255;48.716;9.124;2024-02-14T09:52:42;1.35;;;1.20;;
2488;SDS011;1255;48.716;9.124;2024-02-14T09:55:10;1.95;;;1.35;;
2488;SDS011;1255;48.716;9.124;2024-02-14T09:57:38;1.75;;;1.33;;
2488;SDS011;1255;48.716;9.124;2024-02-14T10:00:08;1.55;;;1.25;;
2488;SDS011;1255;48.716;9.124;2024-02-14T10:02:36;1.58;;;1.20;;
2488;SDS011;1255;48.716;9.124;2024-02-14T10:05:03;2.10;;;1.35;;
2488;SDS011;1255;48.716;9.124;2024-02-14T10:07:32;2.15;;;1.17;;
2488;SDS011;1255;48.716;9.124;2024-02-14T10:10:06;4.22;;;1.40;;
2488;SDS011;1255;48.716;9.124;2024-02-14T10:12:33;1.20;;;0.85;;
2488;SDS011;1255;48.716;9.124;2024-02-14T10:15:00;1.83;;;1.10;;
2488;SDS011;1255;48.716;9.124;2024-02-14T10:17:27;1.75;;;1.13;;
2488;SDS011;1255;48.716;9.124;2024-02-14T10:19:57;2.25;;;1.27;;
2488;SDS011;1255;48.716;9.124;2024-02-14T10:22:25;1.05;;;0.95;;
2488;SDS011;1255;48.716;9.124;2024-02-14T10:24:59;1.98;;;1.67;;
2488;SDS011;1255;48.716;9.124;2024-02-14T10:27:26;1.58;;;1.05;;
2488;SDS011;1255;48.716;9.124;2024-02-14T10:29:55;1.33;;;1.10;;
2488;SDS011;1255;48.716;9.124;2024-02-14T10:32:22;1.77;;;1.50;;
2488;SDS011;1255;48.716;9.124;2024-02-14T10:34:50;0.93;;;0.83;;
2488;SDS011;1255;48.716;9.124;2024-02-14T10:37:16;1.23;;;1.10;;
2488;SDS011;1255;48.716;9.124;2024-02-14T10:39:47;1.80;;;1.10;;
2488;SDS011;1255;48.716;9.124;2024-02-14T10:42:18;1.87;;;1.27;;
2488;SDS011;1255;48.716;9.124;2024-02-14T10:44:45;1.00;;;0.83;;
2488;SDS011;1255;48.716;9.124;2024-02-14T10:47:14;1.00;;;0.90;;
2488;SDS011;1255;48.716;9.124;2024-02-14T10:49:45;1.40;;;0.90;;
2488;SDS011;1255;48.716;9.124;2024-02-14T10:52:13;1.80;;;1.17;;
2488;SDS011;1255;48.716;9.124;2024-02-14T10:54:42;1.57;;;1.30;;
2488;SDS011;1255;48.716;9.124;2024-02-14T10:57:13;1.23;;;0.90;;
2488;SDS011;1255;48.716;9.124;2024-02-14T10:59:44;1.47;;;1.00;;
2488;SDS011;1255;48.716;9.124;2024-02-14T11:02:13;1.20;;;1.00;;
2488;SDS011;1255;48.716;9.124;2024-02-14T11:04:43;1.13;;;1.03;;
2488;SDS011;1255;48.716;9.124;2024-02-14T11:07:11;1.77;;;1.10;;
2488;SDS011;1255;48.716;9.124;2024-02-14T11:09:38;1.20;;;1.00;;
2488;SDS011;1255;48.716;9.124;2024-02-14T11:12:06;1.20;;;1.10;;
2488;SDS011;1255;48.716;9.124;2024-02-14T11:14:34;1.00;;;0.90;;
2488;SDS011;1255;48.716;9.124;2024-02-14T11:17:03;1.00;;;0.90;;
2488;SDS011;1255;48.716;9.124;2024-02-14T11:19:30;3.13;;;1.17;;
2488;SDS011;1255;48.716;9.124;2024-02-14T11:21:58;2.50;;;1.10;;
2488;SDS011;1255;48.716;9.124;2024-02-14T11:24:26;1.27;;;1.17;;
2488;SDS011;1255;48.716;9.124;2024-02-14T11:26:55;1.20;;;1.10;;
2488;SDS011;1255;48.716;9.124;2024-02-14T11:29:28;1.80;;;0.97;;
2488;SDS011;1255;48.716;9.124;2024-02-14T11:31:58;1.67;;;1.13;;
2488;SDS011;1255;48.716;9.124;2024-02-14T11:34:28;1.23;;;1.00;;
2488;SDS011;1255;48.716;9.124;2024-02-14T11:36:57;2.43;;;1.73;;
2488;SDS011;1255;48.716;9.124;2024-02-14T11:39:24;1.77;;;1.07;;
2488;SDS011;1255;48.716;9.124;2024-02-14T11:41:51;1.30;;;1.00;;
2488;SDS011;1255;48.716;9.124;2024-02-14T11:44:18;1.03;;;0.93;;
2488;SDS011;1255;48.716;9.124;2024-02-14T11:46:47;0.90;;;0.80;;
2488;SDS011;1255;48.716;9.124;2024-02-14T11:49:13;0.90;;;0.70;;
2488;SDS011;1255;48.716;9.124;2024-02-14T11:51:43;1.45;;;1.00;;
2488;SDS011;1255;48.716;9.124;2024-02-14T11:54:10;1.08;;;0.90;;
2488;SDS011;1255;48.716;9.124;2024-02-14T11:56:37;1.20;;;1.08;;
2488;SDS011;1255;48.716;9.124;2024-02-14T11:59:05;2.60;;;0.95;;
2488;SDS011;1255;48.716;9.124;2024-02-14T12:01:33;1.90;;;1.00;;
2488;SDS011;1255;48.716;9.124;2024-02-14T12:04:01;1.67;;;1.10;;
2488;SDS011;1255;48.716;9.124;2024-02-14T12:06:31;1.30;;;1.20;;
2488;SDS011;1255;48.716;9.124;2024-02-14T12:09:01;1.20;;;1.10;;
2488;SDS011;1255;48.716;9.124;2024-02-14T12:11:30;1.03;;;0.93;;
2488;SDS011;1255;48.716;9.124;2024-02-14T12:14:00;1.90;;;1.20;;
2488;SDS011;1255;48.716;9.124;2024-02-14T12:16:27;1.20;;;1.10;;
2488;SDS011;1255;48.716;9.124;2024-02-14T12:19:03;0.90;;;0.70;;
2488;SDS011;1255;48.716;9.124;2024-02-14T12:21:33;1.00;;;0.90;;
2488;SDS011;1255;48.716;9.124;2024-02-14T12:24:02;1.20;;;0.90;;
2488;SDS011;1255;48.716;9.124;2024-02-14T12:26:30;1.10;;;1.00;;
2488;SDS011;1255;48.716;9.124;2024-02-14T12:28:57;1.53;;;1.00;;
2488;SDS011;1255;48.716;9.124;2024-02-14T12:31:24;1.00;;;0.90;;
2488;SDS011;1255;48.716;9.124;2024-02-14T12:33:52;1.17;;;0.83;;
2488;SDS011;1255;48.716;9.124;2024-02-14T12:36:20;1.00;;;0.80;;
2488;SDS011;1255;48.716;9.124;2024-02-14T12:38:48;0.83;;;0.73;;
2488;SDS011;1255;48.716;9.124;2024-02-14T12:41:19;1.73;;;0.93;;
2488;SDS011;1255;48.716;9.124;2024-02-14T12:43:48;1.10;;;1.00;;
2488;SDS011;1255;48.716;9.124;2024-02-14T12:46:16;1.10;;;1.00;;
2488;SDS011;1255;48.716;9.124;2024-02-14T12:48:44;2.37;;;1.10;;
2488;SDS011;1255;48.716;9.124;2024-02-14T12:51:13;0.90;;;0.80;;
2488;SDS011;1255;48.716;9.124;2024-02-14T12:53:42;1.00;;;0.83;;
2488;SDS011;1255;48.716;9.124;2024-02-14T12:56:09;1.20;;;1.00;;
2488;SDS011;1255;48.716;9.124;2024-02-14T12:58:37;1.27;;;0.90;;
2488;SDS011;1255;48.716;9.124;2024-02-14T13:01:04;0.80;;;0.80;;
2488;SDS011;1255;48.716;9.124;2024-02-14T13:03:31;1.00;;;0.80;;
2488;SDS011;1255;48.716;9.124;2024-02-14T13:05:58;0.90;;;0.80;;
2488;SDS011;1255;48.716;9.124;2024-02-14T13:08:25;0.90;;;0.80;;
2488;SDS011;1255;48.716;9.124;2024-02-14T13:10:52;1.10;;;0.90;;
2488;SDS011;1255;48.716;9.124;2024-02-14T13:13:20;0.90;;;0.80;;
2488;SDS011;1255;48.716;9.124;2024-02-14T13:15:49;0.93;;;0.80;;
2488;SDS011;1255;48.716;9.124;2024-02-14T13:18:17;1.00;;;0.90;;
2488;SDS011;1255;48.716;9.124;2024-02-14T13:20:45;0.93;;;0.80;;
2488;SDS011;1255;48.716;9.124;2024-02-14T13:23:12;0.80;;;0.70;;
2488;SDS011;1255;48.716;9.124;2024-02-14T13:25:40;1.00;;;0.80;;
2488;SDS011;1255;48.716;9.124;2024-02-14T13:28:07;1.33;;;0.80;;
2488;SDS011;1255;48.716;9.124;2024-02-14T13:30:35;0.97;;;0.80;;
2488;SDS011;1255;48.716;9.124;2024-02-14T13:33:04;2.20;;;0.93;;
2488;SDS011;1255;48.716;9.124;2024-02-14T13:35:34;0.80;;;0.80;;
2488;SDS011;1255;48.716;9.124;2024-02-14T13:38:03;2.13;;;0.93;;
2488;SDS011;1255;48.716;9.124;2024-02-14T13:40:31;0.90;;;0.80;;
2488;SDS011;1255;48.716;9.124;2024-02-14T13:42:59;0.97;;;0.87;;
2488;SDS011;1255;48.716;9.124;2024-02-14T13:45:30;0.90;;;0.80;;
2488;SDS011;1255;48.716;9.124;2024-02-14T13:48:09;1.00;;;0.70;;
2488;SDS011;1255;48.716;9.124;2024-02-14T13:50:37;0.93;;;0.73;;
2488;SDS011;1255;48.716;9.124;2024-02-14T13:53:06;1.87;;;0.70;;
2488;SDS011;1255;48.716;9.124;2024-02-14T13:55:34;0.90;;;0.70;;
2488;SDS011;1255;48.716;9.124;2024-02-14T13:58:02;0.90;;;0.80;;
2488;SDS011;1255;48.716;9.124;2024-02-14T14:00:30;1.10;;;0.93;;
2488;SDS011;1255;48.716;9.124;2024-02-14T14:02:58;0.80;;;0.63;;
2488;SDS011;1255;48.716;9.124;2024-02-14T14:05:27;0.80;;;0.70;;
2488;SDS011;1255;48.716;9.124;2024-02-14T14:07:55;0.80;;;0.70;;
2488;SDS011;1255;48.716;9.124;2024-02-14T14:10:22;0.90;;;0.80;;
2488;SDS011;1255;48.716;9.124;2024-02-14T14:12:50;0.97;;;0.73;;
2488;SDS011;1255;48.716;9.124;2024-02-14T14:15:17;0.80;;;0.60;;
2488;SDS011;1255;48.716;9.124;2024-02-14T14:17:44;0.90;;;0.80;;
2488;SDS011;1255;48.716;9.124;2024-02-14T14:20:11;1.03;;;0.90;;
2488;SDS011;1255;48.716;9.124;2024-02-14T14:22:39;1.77;;;0.80;;
2488;SDS011;1255;48.716;9.124;2024-02-14T14:25:06;1.10;;;0.90;;
2488;SDS011;1255;48.716;9.124;2024-02-14T14:27:33;0.90;;;0.80;;
2488;SDS011;1255;48.716;9.124;2024-02-14T14:30:00;1.10;;;1.00;;
2488;SDS011;1255;48.716;9.124;2024-02-14T14:32:27;1.23;;;0.90;;
2488;SDS011;1255;48.716;9.124;2024-02-14T14:34:53;1.10;;;1.00;;
2488;SDS011;1255;48.716;9.124;2024-02-14T14:37:21;1.57;;;0.83;;
2488;SDS011;1255;48.716;9.124;2024-02-14T14:39:49;0.80;;;0.70;;
2488;SDS011;1255;48.716;9.124;2024-02-14T14:42:16;0.97;;;0.80;;
2488;SDS011;1255;48.716;9.124;2024-02-14T14:44:43;1.03;;;0.90;;
2488;SDS011;1255;48.716;9.124;2024-02-14T14:47:10;2.47;;;1.53;;
2488;SDS011;1255;48.716;9.124;2024-02-14T14:49:38;2.10;;;0.80;;
2488;SDS011;1255;48.716;9.124;2024-02-14T14:52:05;1.00;;;0.70;;
2488;SDS011;1255;48.716;9.124;2024-02-14T14:54:32;0.90;;;0.80;;
2488;SDS011;1255;48.716;9.124;2024-02-14T14:57:00;1.10;;;1.00;;
2488;SDS011;1255;48.716;9.124;2024-02-14T14:59:29;1.07;;;0.83;;
2488;SDS011;1255;48.716;9.124;2024-02-14T15:01:55;0.90;;;0.80;;
2488;SDS011;1255;48.716;9.124;2024-02-14T15:04:22;2.00;;;0.80;;
2488;SDS011;1255;48.716;9.124;2024-02-14T15:06:49;0.97;;;0.87;;
2488;SDS011;1255;48.716;9.124;2024-02-14T15:09:17;1.00;;;0.90;;
2488;SDS011;1255;48.716;9.124;2024-02-14T15:11:45;3.33;;;1.53;;
2488;SDS011;1255;48.716;9.124;2024-02-14T15:14:13;1.13;;;0.70;;
2488;SDS011;1255;48.716;9.124;2024-02-14T15:16:40;1.13;;;1.00;;
2488;SDS011;1255;48.716;9.124;2024-02-14T15:19:07;1.63;;;1.10;;